Time;durP1;ratioP1;P1;durP2;ratioP2;P2;SDS_P1;SDS_P2;PMS_P1;PMS_P2;Temp;Humidity;BMP_temperature;BMP_pressure;BME280_temperature;BME280_humidity;BME280_pressure;Samples;Min_cycle;Max_cycle;Signal;HPM_P1;HPM_P2
2023/01/24 00:00:55;;;;;;;28.03;14.37;;;2.10;99.90;;;;;;6240834;23;20137;-83
2023/01/24 00:03:21;;;;;;;22.77;11.57;;;2.10;99.90;;;;;;6238893;23;20383;-83
2023/01/24 00:05:48;;;;;;;21.60;12.40;;;2.00;99.90;;;;;;6242289;22;20153;-83
2023/01/24 00:08:18;;;;;;;22.45;11.73;;;2.00;99.90;;;;;;6240363;23;20492;-84
2023/01/24 00:10:44;;;;;;;27.55;12.55;;;2.00;99.90;;;;;;6240190;23;20164;-85
2023/01/24 00:13:12;;;;;;;19.77;11.00;;;2.00;99.90;;;;;;6239757;23;20968;-83
2023/01/24 00:15:37;;;;;;;22.75;11.43;;;2.00;99.90;;;;;;6241092;23;20198;-84
2023/01/24 00:18:03;;;;;;;22.27;11.77;;;2.00;99.90;;;;;;6242097;23;20271;-84
2023/01/24 00:20:28;;;;;;;25.07;13.50;;;2.00;99.90;;;;;;6243195;23;20171;-83
2023/01/24 00:22:54;;;;;;;22.60;11.33;;;2.00;99.90;;;;;;6246663;23;20231;-81
2023/01/24 00:25:19;;;;;;;23.00;11.43;;;2.00;99.90;;;;;;6241352;23;20180;-85
2023/01/24 00:27:45;;;;;;;25.40;12.77;;;2.00;99.90;;;;;;6243296;23;20175;-85
2023/01/24 00:30:11;;;;;;;17.40;12.43;;;2.00;99.90;;;;;;6242247;23;20157;-84
2023/01/24 00:32:36;;;;;;;23.48;12.30;;;2.00;99.90;;;;;;6240889;23;20626;-84
2023/01/24 00:35:02;;;;;;;26.30;12.53;;;2.00;99.90;;;;;;6239262;23;20180;-81
2023/01/24 00:37:27;;;;;;;23.90;11.80;;;2.00;99.90;;;;;;6241500;23;20195;-85
2023/01/24 00:39:53;;;;;;;21.83;12.53;;;2.00;99.90;;;;;;6232817;23;20152;-84
2023/01/24 00:42:18;;;;;;;28.27;15.00;;;2.00;99.90;;;;;;6233486;23;20630;-85
2023/01/24 00:44:44;;;;;;;19.53;10.90;;;2.00;99.90;;;;;;6233996;23;20177;-82
2023/01/24 00:47:10;;;;;;;26.17;13.37;;;2.00;99.90;;;;;;6233364;23;20157;-84
2023/01/24 00:49:35;;;;;;;26.30;14.57;;;2.00;99.90;;;;;;6250939;22;20586;-81
2023/01/24 00:52:00;;;;;;;24.47;12.80;;;2.10;99.90;;;;;;6236158;23;20144;-84
2023/01/24 00:54:26;;;;;;;26.23;14.40;;;2.10;99.90;;;;;;6239016;23;20220;-83
2023/01/24 00:56:52;;;;;;;20.60;12.60;;;2.20;99.90;;;;;;6236917;23;20453;-83
2023/01/24 00:59:17;;;;;;;25.20;12.70;;;2.10;99.90;;;;;;6234461;23;20171;-85
2023/01/24 01:01:43;;;;;;;26.07;14.90;;;2.10;99.90;;;;;;6238954;23;20251;-85
2023/01/24 01:04:09;;;;;;;27.03;13.47;;;2.10;99.90;;;;;;6239370;23;20173;-83
2023/01/24 01:06:35;;;;;;;30.23;14.15;;;2.20;99.90;;;;;;6238479;23;20239;-84
2023/01/24 01:09:01;;;;;;;32.07;14.70;;;2.20;99.90;;;;;;6241227;23;20242;-84
2023/01/24 01:11:26;;;;;;;31.67;14.97;;;2.20;99.90;;;;;;6241066;23;20463;-82
2023/01/24 01:13:55;;;;;;;32.83;14.17;;;2.20;99.90;;;;;;6240834;23;20172;-83
2023/01/24 01:16:22;;;;;;;27.85;14.70;;;2.10;99.90;;;;;;6240601;23;20160;-83
2023/01/24 01:18:48;;;;;;;39.60;17.63;;;2.10;99.90;;;;;;6239468;23;20175;-85
2023/01/24 01:21:16;;;;;;;17.88;10.02;;;2.10;99.90;;;;;;6238729;23;20677;-86
2023/01/24 01:23:42;;;;;;;24.48;13.30;;;2.20;99.90;;;;;;6239976;23;20169;-82
2023/01/24 01:26:12;;;;;;;26.57;13.00;;;2.10;99.90;;;;;;6239352;23;20164;-84
2023/01/24 01:28:37;;;;;;;22.92;11.35;;;2.10;99.90;;;;;;6238939;23;20633;-84
2023/01/24 01:31:03;;;;;;;26.67;13.17;;;2.20;99.90;;;;;;6241724;23;20156;-85
2023/01/24 01:33:29;;;;;;;25.47;13.50;;;2.20;99.90;;;;;;6240555;23;20179;-84
2023/01/24 01:35:55;;;;;;;27.73;12.00;;;2.10;99.90;;;;;;6240584;23;20176;-84
2023/01/24 01:38:24;;;;;;;27.90;13.15;;;2.10;99.90;;;;;;6239418;23;20279;-83
2023/01/24 01:40:49;;;;;;;26.33;14.43;;;2.00;99.90;;;;;;6246286;23;20148;-83
2023/01/24 01:43:18;;;;;;;24.23;12.43;;;2.00;99.90;;;;;;6238522;23;20159;-83
2023/01/24 01:45:49;;;;;;;24.77;12.38;;;2.10;99.90;;;;;;6239730;22;20157;-82
2023/01/24 01:48:46;;;;;;;25.00;12.80;;;2.10;99.90;;;;;;6236600;23;20145;-84
2023/01/24 01:51:23;;;;;;;24.70;11.90;;;2.10;99.90;;;;;;6220744;22;20167;-83
2023/01/24 01:53:58;;;;;;;21.65;11.95;;;2.00;99.90;;;;;;6235438;23;20836;-83
2023/01/24 01:56:42;;;;;;;24.23;12.25;;;2.00;99.90;;;;;;6238576;22;20132;-83
2023/01/24 01:59:14;;;;;;;28.98;13.95;;;2.10;99.90;;;;;;6236616;23;20140;-83
2023/01/24 02:01:41;;;;;;;26.80;13.50;;;2.10;99.90;;;;;;6231935;23;20141;-85
2023/01/24 02:04:13;;;;;;;27.70;12.93;;;2.10;99.90;;;;;;6248239;22;20184;-81
2023/01/24 02:06:57;;;;;;;22.58;12.25;;;2.00;99.90;;;;;;6229871;23;20149;-82
2023/01/24 02:09:27;;;;;;;22.10;11.77;;;2.00;99.90;;;;;;6232755;23;20216;-81
2023/01/24 02:11:58;;;;;;;25.75;11.38;;;2.10;99.90;;;;;;6232837;23;20250;-81
2023/01/24 02:17:09;;;;;;;25.50;12.40;;;2.00;99.90;;;;;;6238940;23;20171;-82
2023/01/24 02:19:49;;;;;;;22.33;9.30;;;2.00;99.90;;;;;;6232691;23;20149;-80
2023/01/24 02:22:23;;;;;;;25.10;12.05;;;2.10;99.90;;;;;;6239726;22;20218;-82
2023/01/24 02:24:59;;;;;;;20.52;12.68;;;2.10;99.90;;;;;;6234601;22;20164;-83
2023/01/24 02:27:27;;;;;;;26.63;12.93;;;2.10;99.90;;;;;;6238012;23;20140;-83
2023/01/24 02:29:54;;;;;;;25.77;12.45;;;2.00;99.90;;;;;;6236504;23;20187;-80
2023/01/24 02:32:20;;;;;;;20.75;12.32;;;2.00;99.90;;;;;;6236286;22;20179;-82
2023/01/24 02:34:46;;;;;;;21.45;11.65;;;2.00;99.90;;;;;;6235994;23;20234;-83
2023/01/24 02:37:13;;;;;;;27.10;13.37;;;2.10;99.90;;;;;;6237960;23;20247;-85
2023/01/24 02:39:57;;;;;;;26.90;13.18;;;2.00;99.90;;;;;;6237965;22;20368;-82
2023/01/24 02:42:28;;;;;;;25.58;13.52;;;2.00;99.90;;;;;;6236815;23;20155;-83
2023/01/24 02:45:04;;;;;;;30.80;14.30;;;2.00;99.90;;;;;;6237377;22;20169;-81
2023/01/24 02:47:34;;;;;;;20.83;11.85;;;2.00;99.90;;;;;;6237843;23;20148;-80
2023/01/24 02:50:00;;;;;;;24.58;12.45;;;1.90;99.90;;;;;;6238191;23;20200;-81
2023/01/24 02:55:10;;;;;;;32.33;14.68;;;2.00;99.90;;;;;;6240287;23;20206;-81
2023/01/24 03:00:20;;;;;;;56.13;26.67;;;1.90;99.90;;;;;;6239971;23;20772;-83
2023/01/24 03:02:46;;;;;;;76.37;31.83;;;2.00;99.90;;;;;;6240661;23;20164;-83
2023/01/24 03:05:11;;;;;;;47.67;21.53;;;2.10;99.90;;;;;;6237952;23;20187;-83
2023/01/24 03:07:44;;;;;;;81.40;39.33;;;2.10;99.90;;;;;;6249377;23;20238;-84
2023/01/24 03:10:19;;;;;;;42.10;19.60;;;2.10;99.90;;;;;;6236324;23;20382;-85
2023/01/24 03:34:49;;;;;;;26.23;12.32;;;2.00;99.90;;;;;;6242813;23;20187;-82
2023/01/24 03:39:53;;;;;;;26.45;12.90;;;2.00;99.90;;;;;;6242153;22;20128;-82
2023/01/24 03:40:06;;;;;;;24.85;14.30;;;2.00;99.90;;;;;;6240243;23;20194;-84
2023/01/24 03:42:32;;;;;;;31.13;13.95;;;2.00;99.90;;;;;;6263299;22;20192;-81
2023/01/24 03:44:57;;;;;;;26.07;13.07;;;2.00;99.90;;;;;;6251199;22;20185;-83
2023/01/24 03:47:23;;;;;;;26.43;12.67;;;2.00;99.90;;;;;;6242532;23;20391;-83
2023/01/24 03:52:32;;;;;;;32.65;14.07;;;2.00;99.90;;;;;;6245824;23;20194;-84
2023/01/24 03:54:59;;;;;;;32.33;15.07;;;2.10;99.90;;;;;;6240836;23;20243;-84
2023/01/24 03:57:26;;;;;;;29.60;13.98;;;2.10;99.90;;;;;;6240651;23;20151;-83
2023/01/24 03:59:52;;;;;;;29.85;12.80;;;2.10;99.90;;;;;;6242764;22;20668;-84
2023/01/24 04:02:18;;;;;;;25.03;12.27;;;2.10;99.90;;;;;;6240263;23;20240;-85
2023/01/24 04:07:28;;;;;;;26.52;11.88;;;2.10;99.90;;;;;;6238601;23;20756;-84
2023/01/24 04:09:54;;;;;;;25.25;13.35;;;2.10;99.90;;;;;;6236080;23;20177;-82
2023/01/24 04:12:20;;;;;;;31.40;15.70;;;2.10;99.90;;;;;;6236746;22;20160;-83
2023/01/24 04:14:46;;;;;;;29.87;14.33;;;2.10;99.90;;;;;;6235633;23;20183;-83
2023/01/24 04:17:11;;;;;;;27.13;15.03;;;2.10;99.90;;;;;;6238439;23;20206;-85
2023/01/24 04:19:37;;;;;;;29.47;13.83;;;2.10;99.90;;;;;;6234010;23;20153;-83
2023/01/24 04:22:02;;;;;;;29.40;15.60;;;2.10;99.90;;;;;;6236273;23;20208;-82
2023/01/24 04:24:28;;;;;;;29.37;16.97;;;2.10;99.90;;;;;;6235610;23;20168;-81
2023/01/24 04:26:53;;;;;;;32.70;13.53;;;2.10;99.90;;;;;;6238166;23;20883;-84
2023/01/24 04:29:20;;;;;;;34.13;15.70;;;2.10;99.90;;;;;;6234826;23;20234;-81
2023/01/24 04:31:45;;;;;;;25.75;14.05;;;2.10;99.90;;;;;;6242809;22;20151;-83
2023/01/24 04:34:11;;;;;;;30.03;14.53;;;2.10;99.90;;;;;;6244463;23;20377;-82
2023/01/24 04:36:36;;;;;;;25.27;14.77;;;2.00;99.90;;;;;;6246797;23;20153;-86
2023/01/24 04:39:02;;;;;;;29.10;16.17;;;2.10;99.90;;;;;;6240868;23;20153;-84
2023/01/24 04:41:28;;;;;;;27.63;13.67;;;2.00;99.90;;;;;;6242044;23;20156;-84
2023/01/24 04:43:53;;;;;;;27.13;14.03;;;2.00;99.90;;;;;;6236788;23;20196;-81
2023/01/24 04:46:18;;;;;;;29.80;16.00;;;2.00;99.90;;;;;;6243000;22;20605;-82
2023/01/24 04:48:44;;;;;;;26.50;14.43;;;2.00;99.90;;;;;;6255790;22;20152;-82
2023/01/24 04:51:09;;;;;;;28.87;14.90;;;2.00;99.90;;;;;;6236583;23;20160;-82
2023/01/24 04:53:39;;;;;;;27.43;17.47;;;2.00;99.90;;;;;;6240582;23;20237;-82
2023/01/24 04:56:05;;;;;;;35.55;14.55;;;2.10;99.90;;;;;;6235969;23;20176;-82
2023/01/24 04:58:31;;;;;;;30.05;15.32;;;2.00;99.90;;;;;;6237334;23;20194;-82
2023/01/24 05:00:57;;;;;;;33.10;15.23;;;2.00;99.90;;;;;;6237365;23;20149;-82
2023/01/24 05:03:23;;;;;;;29.17;14.77;;;2.10;99.90;;;;;;6242333;23;20494;-83
2023/01/24 05:05:49;;;;;;;26.00;15.10;;;2.00;99.90;;;;;;6239442;23;20259;-84
2023/01/24 05:08:15;;;;;;;29.55;15.30;;;2.10;99.90;;;;;;6244487;22;20241;-83
2023/01/24 05:10:40;;;;;;;35.53;15.17;;;2.10;99.90;;;;;;6244395;23;20168;-84
2023/01/24 05:13:06;;;;;;;24.43;13.47;;;2.00;99.90;;;;;;6244190;23;20152;-81
2023/01/24 05:15:31;;;;;;;26.77;13.27;;;2.00;99.90;;;;;;6246035;23;20180;-85
2023/01/24 05:17:57;;;;;;;27.47;14.90;;;2.10;99.90;;;;;;6242047;23;20247;-82
2023/01/24 05:20:22;;;;;;;29.27;15.60;;;2.10;99.90;;;;;;6240474;23;20141;-85
2023/01/24 05:22:49;;;;;;;21.10;12.40;;;2.10;99.90;;;;;;6239442;23;20148;-84
2023/01/24 05:25:15;;;;;;;29.85;14.43;;;2.10;99.90;;;;;;6240354;23;20172;-83
2023/01/24 05:27:41;;;;;;;31.77;17.23;;;2.10;99.90;;;;;;6248158;23;20235;-82
2023/01/24 05:30:09;;;;;;;26.05;14.80;;;2.10;99.90;;;;;;6245260;22;20267;-83
2023/01/24 05:32:34;;;;;;;35.50;14.73;;;2.00;99.90;;;;;;6244893;22;20152;-81
2023/01/24 05:35:00;;;;;;;33.50;13.97;;;2.00;99.90;;;;;;6243250;23;20568;-83
2023/01/24 05:37:25;;;;;;;29.50;15.03;;;2.10;99.90;;;;;;6245815;23;20148;-80
2023/01/24 05:39:51;;;;;;;30.67;14.07;;;2.00;99.90;;;;;;6246049;23;20152;-84
2023/01/24 05:42:16;;;;;;;25.90;14.40;;;2.00;99.90;;;;;;6247083;23;20128;-81
2023/01/24 05:44:42;;;;;;;27.20;13.20;;;2.00;99.90;;;;;;6247113;23;20211;-83
2023/01/24 05:47:07;;;;;;;25.20;15.83;;;2.00;99.90;;;;;;6247558;23;20738;-83
2023/01/24 05:49:33;;;;;;;31.37;15.17;;;2.00;99.90;;;;;;6248525;23;20147;-83
2023/01/24 05:51:58;;;;;;;29.47;15.40;;;2.10;99.90;;;;;;6245621;23;20152;-85
2023/01/24 05:54:24;;;;;;;30.73;15.33;;;2.10;99.90;;;;;;6240609;23;20178;-84
2023/01/24 05:56:49;;;;;;;22.23;13.10;;;2.10;99.90;;;;;;6244192;23;20186;-84
2023/01/24 05:59:15;;;;;;;35.03;14.77;;;2.10;99.90;;;;;;6245974;23;20554;-84
2023/01/24 06:01:40;;;;;;;33.07;14.70;;;2.20;99.90;;;;;;6240040;23;20638;-84
2023/01/24 06:04:06;;;;;;;36.10;16.20;;;2.20;99.90;;;;;;6240096;23;20172;-83
2023/01/24 06:06:32;;;;;;;34.57;15.57;;;2.20;99.90;;;;;;6241843;23;20163;-81
2023/01/24 06:08:57;;;;;;;29.53;14.93;;;2.20;99.90;;;;;;6244540;23;20458;-85
2023/01/24 06:11:25;;;;;;;31.80;15.70;;;2.30;99.90;;;;;;6260243;22;20164;-82
2023/01/24 06:13:53;;;;;;;26.45;15.68;;;2.20;99.90;;;;;;6245438;23;20176;-80
2023/01/24 06:16:22;;;;;;;32.35;15.30;;;2.30;99.90;;;;;;6243702;23;20650;-81
2023/01/24 06:18:49;;;;;;;23.75;13.68;;;2.30;99.90;;;;;;6244100;23;20250;-84
2023/01/24 06:21:34;;;;;;;38.03;18.00;;;2.40;99.90;;;;;;6245218;23;20156;-85
2023/01/24 06:24:00;;;;;;;28.02;15.23;;;2.30;99.90;;;;;;6241552;23;20179;-82
2023/01/24 06:26:26;;;;;;;27.88;13.25;;;2.30;99.90;;;;;;6239731;23;20148;-85
2023/01/24 06:28:52;;;;;;;27.63;15.17;;;2.30;99.90;;;;;;6239913;22;20165;-83
2023/01/24 06:31:44;;;;;;;30.53;15.37;;;2.20;99.90;;;;;;6248969;22;20519;-84
2023/01/24 06:34:31;;;;;;;32.50;16.00;;;2.20;99.90;;;;;;6241832;23;20383;-83
2023/01/24 06:37:13;;;;;;;34.90;16.40;;;2.20;99.90;;;;;;6240873;22;20158;-84
2023/01/24 06:39:43;;;;;;;34.92;17.15;;;2.20;99.90;;;;;;6238213;23;20228;-85
2023/01/24 06:42:09;;;;;;;28.65;13.85;;;2.20;99.90;;;;;;6239012;22;20232;-83
2023/01/24 06:44:35;;;;;;;30.70;15.23;;;2.30;99.90;;;;;;6237659;23;20207;-83
2023/01/24 06:47:00;;;;;;;27.00;13.60;;;2.20;99.90;;;;;;6238617;23;20156;-84
2023/01/24 06:49:26;;;;;;;37.97;17.60;;;2.20;99.90;;;;;;6238505;23;20379;-82
2023/01/24 06:51:52;;;;;;;27.73;15.33;;;2.30;99.90;;;;;;6238137;23;20202;-83
2023/01/24 06:54:18;;;;;;;30.33;14.40;;;2.30;99.90;;;;;;6238987;23;20191;-83
2023/01/24 06:56:43;;;;;;;28.20;14.73;;;2.20;99.90;;;;;;6235899;23;20157;-83
2023/01/24 06:59:09;;;;;;;31.03;15.83;;;2.30;99.90;;;;;;6235784;23;20455;-82
2023/01/24 07:01:34;;;;;;;34.40;16.93;;;2.20;99.90;;;;;;6234338;23;20153;-83
2023/01/24 07:04:00;;;;;;;29.90;15.07;;;2.10;99.90;;;;;;6236679;23;20164;-82
2023/01/24 07:06:26;;;;;;;38.73;16.73;;;2.20;99.90;;;;;;6237473;23;20144;-83
2023/01/24 07:08:52;;;;;;;28.30;14.93;;;2.20;99.90;;;;;;6236113;23;20164;-80
2023/01/24 07:11:18;;;;;;;37.85;17.63;;;2.30;99.90;;;;;;6236271;23;20729;-82
2023/01/24 07:13:43;;;;;;;35.20;15.63;;;2.30;99.90;;;;;;6236553;23;20199;-84
2023/01/24 07:16:09;;;;;;;28.33;16.17;;;2.20;99.90;;;;;;6235235;23;20208;-83
2023/01/24 07:18:35;;;;;;;26.50;14.10;;;2.20;99.90;;;;;;6235399;23;20267;-82
2023/01/24 07:21:05;;;;;;;31.10;15.67;;;2.20;99.90;;;;;;6235983;23;20598;-84
2023/01/24 07:23:32;;;;;;;33.55;15.27;;;2.30;99.90;;;;;;6237127;23;20462;-84
2023/01/24 07:25:58;;;;;;;29.08;14.90;;;2.30;99.90;;;;;;6245008;23;20137;-79
2023/01/24 07:28:24;;;;;;;35.72;17.15;;;2.20;99.90;;;;;;6242755;22;20830;-83
2023/01/24 07:30:52;;;;;;;29.03;14.73;;;2.20;99.90;;;;;;6237665;22;20152;-84
2023/01/24 07:33:18;;;;;;;31.52;15.45;;;2.20;99.90;;;;;;6237245;23;20383;-83
2023/01/24 07:35:43;;;;;;;31.10;15.70;;;2.30;99.90;;;;;;6238138;23;20227;-81
2023/01/24 07:38:11;;;;;;;28.80;15.33;;;2.20;99.90;;;;;;6250997;22;20853;-83
2023/01/24 07:40:37;;;;;;;33.35;16.27;;;2.30;99.90;;;;;;6235670;23;20739;-85
2023/01/24 07:43:04;;;;;;;35.00;16.30;;;2.30;99.90;;;;;;6235886;23;20157;-82
2023/01/24 07:45:30;;;;;;;30.33;15.20;;;2.30;99.90;;;;;;6236030;23;20207;-84
2023/01/24 07:47:59;;;;;;;37.20;16.70;;;2.30;99.90;;;;;;6232510;23;20214;-82
2023/01/24 07:50:26;;;;;;;30.90;16.02;;;2.30;99.90;;;;;;6236156;23;20137;-84
2023/01/24 07:52:52;;;;;;;36.95;16.02;;;2.40;99.90;;;;;;6234550;23;20145;-81
2023/01/24 07:55:18;;;;;;;34.08;17.52;;;2.40;99.90;;;;;;6227850;23;20186;-83
2023/01/24 07:57:44;;;;;;;32.67;16.50;;;2.30;99.90;;;;;;6235008;23;20153;-82
2023/01/24 08:00:10;;;;;;;32.00;18.10;;;2.40;99.90;;;;;;6236555;23;20145;-85
2023/01/24 08:02:36;;;;;;;29.35;15.43;;;2.40;99.90;;;;;;6240029;22;20144;-85
2023/01/24 08:05:01;;;;;;;29.87;16.20;;;2.40;99.90;;;;;;6236897;23;20169;-82
2023/01/24 08:07:27;;;;;;;37.40;16.80;;;2.40;99.90;;;;;;6235728;23;20827;-83
2023/01/24 08:09:52;;;;;;;29.10;14.50;;;2.40;99.90;;;;;;6234794;23;20149;-82
2023/01/24 08:12:18;;;;;;;34.70;16.10;;;2.40;99.90;;;;;;6232812;23;20964;-83
2023/01/24 08:14:43;;;;;;;28.27;15.23;;;2.40;99.90;;;;;;6233139;23;20674;-82
2023/01/24 08:17:09;;;;;;;28.67;16.07;;;2.50;99.90;;;;;;6232573;23;20161;-81
2023/01/24 08:19:35;;;;;;;34.08;15.25;;;2.40;99.90;;;;;;6234786;23;20141;-81
2023/01/24 08:22:02;;;;;;;31.67;17.37;;;2.40;99.90;;;;;;6234591;23;20139;-84
2023/01/24 08:24:28;;;;;;;31.65;16.20;;;2.40;99.90;;;;;;6231230;23;20180;-84
2023/01/24 08:26:53;;;;;;;35.07;15.60;;;2.40;99.90;;;;;;6236281;22;20486;-83
2023/01/24 08:29:19;;;;;;;31.90;16.10;;;2.30;99.90;;;;;;6233604;23;20399;-82
2023/01/24 08:31:44;;;;;;;29.10;14.17;;;2.40;99.90;;;;;;6236802;23;20160;-82
2023/01/24 08:34:10;;;;;;;30.97;15.30;;;2.50;99.90;;;;;;6232927;23;20176;-81
2023/01/24 08:36:36;;;;;;;31.93;15.23;;;2.50;99.90;;;;;;6234587;23;20278;-83
2023/01/24 08:39:04;;;;;;;30.27;15.10;;;2.50;99.90;;;;;;6237186;23;20360;-81
2023/01/24 08:41:29;;;;;;;29.20;16.77;;;2.50;99.90;;;;;;6250989;22;20148;-80
2023/01/24 08:43:55;;;;;;;31.37;15.60;;;2.40;99.90;;;;;;6232862;23;20176;-82
2023/01/24 08:46:20;;;;;;;27.37;14.77;;;2.30;99.90;;;;;;6234575;23;20200;-82
2023/01/24 08:48:46;;;;;;;33.63;15.87;;;2.40;99.90;;;;;;6234109;23;20184;-84
2023/01/24 08:51:11;;;;;;;26.50;13.93;;;2.30;99.90;;;;;;6236021;23;20149;-82
2023/01/24 08:53:37;;;;;;;32.97;14.17;;;2.30;99.90;;;;;;6237177;23;20589;-83
2023/01/24 08:56:03;;;;;;;29.83;15.00;;;2.40;99.90;;;;;;6234118;23;20180;-84
2023/01/24 08:58:32;;;;;;;30.40;14.90;;;2.40;99.90;;;;;;6237477;22;20144;-83
2023/01/24 09:00:57;;;;;;;28.08;15.10;;;2.30;99.90;;;;;;6235544;23;20192;-85
2023/01/24 09:03:22;;;;;;;39.77;18.97;;;2.40;99.90;;;;;;6235001;23;20145;-82
2023/01/24 09:05:48;;;;;;;28.70;14.43;;;2.50;99.90;;;;;;6235432;23;20148;-84
2023/01/24 09:08:13;;;;;;;40.50;15.10;;;2.60;99.90;;;;;;6236219;23;20686;-82
2023/01/24 09:10:39;;;;;;;43.93;20.60;;;2.70;99.90;;;;;;6236038;23;20180;-85
2023/01/24 09:13:05;;;;;;;38.30;16.73;;;2.70;99.90;;;;;;6232198;23;20156;-83
2023/01/24 09:15:30;;;;;;;28.00;13.87;;;2.60;99.90;;;;;;6234888;23;20223;-84
2023/01/24 09:17:59;;;;;;;31.57;13.40;;;2.60;99.90;;;;;;6237087;23;20168;-81
2023/01/24 09:20:25;;;;;;;25.83;14.73;;;2.60;99.90;;;;;;6234858;23;20571;-81
2023/01/24 09:22:50;;;;;;;24.40;13.93;;;2.60;99.90;;;;;;6234678;22;20183;-82
2023/01/24 09:25:16;;;;;;;29.67;13.10;;;2.60;99.90;;;;;;6235212;23;20399;-86
2023/01/24 09:27:41;;;;;;;28.00;15.23;;;2.60;99.90;;;;;;6232830;23;20171;-82
2023/01/24 09:30:08;;;;;;;30.10;13.73;;;2.60;99.90;;;;;;6234401;23;20160;-81
2023/01/24 09:32:34;;;;;;;29.80;13.00;;;2.60;99.90;;;;;;6235044;23;20155;-86
2023/01/24 09:35:00;;;;;;;30.85;14.73;;;2.60;99.90;;;;;;6233789;23;20180;-84
2023/01/24 09:37:26;;;;;;;30.17;15.93;;;2.70;99.90;;;;;;6235756;23;20187;-82
2023/01/24 09:39:55;;;;;;;27.33;13.32;;;2.70;99.90;;;;;;6237442;22;20511;-84
2023/01/24 09:42:39;;;;;;;31.50;14.30;;;2.70;99.90;;;;;;6236933;22;20176;-83
2023/01/24 09:45:33;;;;;;;24.90;12.50;;;2.80;99.90;;;;;;6234188;23;20172;-81
2023/01/24 09:48:05;;;;;;;32.80;13.48;;;2.80;99.90;;;;;;6235458;22;20207;-83
2023/01/24 09:50:54;;;;;;;27.02;13.90;;;2.70;99.90;;;;;;6233695;23;20145;-82
2023/01/24 09:53:34;;;;;;;28.05;12.88;;;2.80;99.90;;;;;;6234471;22;20137;-80
2023/01/24 09:56:01;;;;;;;22.42;12.63;;;2.80;99.90;;;;;;6246912;22;20164;-80
2023/01/24 09:58:43;;;;;;;24.08;11.02;;;2.80;99.90;;;;;;6241823;22;20200;-83
2023/01/24 10:01:11;;;;;;;31.42;15.45;;;2.90;99.90;;;;;;6236763;23;20435;-82
2023/01/24 10:03:39;;;;;;;26.80;14.15;;;2.90;99.90;;;;;;6244196;23;20280;-83
2023/01/24 10:06:14;;;;;;;21.27;11.90;;;3.00;99.90;;;;;;6234622;22;20153;-81
2023/01/24 10:09:07;;;;;;;22.30;11.57;;;3.00;99.90;;;;;;6235021;23;20243;-83
2023/01/24 10:12:00;;;;;;;31.13;14.10;;;3.00;99.90;;;;;;6231935;23;20168;-81
2023/01/24 10:14:49;;;;;;;21.90;12.90;;;2.90;99.90;;;;;;6230467;22;20828;-80
2023/01/24 10:17:44;;;;;;;27.67;13.15;;;3.00;99.90;;;;;;6246151;22;20187;-83
2023/01/24 10:20:35;;;;;;;20.73;12.35;;;3.00;99.90;;;;;;6222629;23;20168;-84
2023/01/24 10:23:25;;;;;;;19.15;10.77;;;3.00;99.90;;;;;;6238299;22;20825;-84
2023/01/24 10:25:55;;;;;;;21.42;12.50;;;3.00;99.90;;;;;;6235627;23;20182;-84
2023/01/24 10:28:34;;;;;;;24.08;14.20;;;3.00;99.90;;;;;;6239044;22;20148;-84
2023/01/24 10:31:17;;;;;;;31.02;13.15;;;3.20;99.90;;;;;;6241270;23;20510;-83
2023/01/24 10:33:49;;;;;;;23.65;13.93;;;3.20;99.90;;;;;;6239201;23;20202;-84
2023/01/24 10:36:59;;;;;;;22.02;10.90;;;3.30;99.90;;;;;;6237923;23;20234;-85
2023/01/24 10:39:27;;;;;;;18.70;11.32;;;3.20;99.90;;;;;;6236206;23;20140;-81
2023/01/24 10:41:53;;;;;;;24.42;12.57;;;3.30;99.90;;;;;;6237867;23;20184;-80
2023/01/24 10:44:26;;;;;;;18.40;9.83;;;3.40;99.90;;;;;;6237731;23;20196;-81
2023/01/24 10:47:37;;;;;;;24.60;10.90;;;3.40;99.90;;;;;;6238326;22;21096;-83
2023/01/24 10:50:15;;;;;;;17.52;10.00;;;3.50;99.90;;;;;;6222999;23;20156;-82
2023/01/24 10:52:41;;;;;;;22.02;11.10;;;3.60;99.90;;;;;;6240935;22;20142;-82
2023/01/24 10:55:36;;;;;;;19.08;11.10;;;3.50;99.90;;;;;;6236665;23;20188;-82
2023/01/24 10:58:03;;;;;;;23.70;11.77;;;3.50;99.90;;;;;;6239632;22;20153;-83
2023/01/24 11:00:34;;;;;;;21.08;11.35;;;3.60;99.90;;;;;;6239428;22;20152;-83
2023/01/24 11:03:03;;;;;;;15.43;9.02;;;3.60;99.90;;;;;;6237583;23;20148;-82
2023/01/24 11:05:48;;;;;;;20.05;10.75;;;3.70;99.90;;;;;;6238015;23;20188;-81
2023/01/24 11:08:21;;;;;;;19.98;10.20;;;3.70;99.90;;;;;;6237476;23;20145;-83
2023/01/24 11:10:55;;;;;;;17.95;9.85;;;3.70;99.90;;;;;;6245160;22;20129;-81
2023/01/24 11:13:36;;;;;;;19.65;10.32;;;3.60;99.90;;;;;;6248182;22;20137;-82
2023/01/24 11:16:04;;;;;;;20.42;9.75;;;3.50;99.90;;;;;;6238947;22;20172;-82
2023/01/24 11:18:33;;;;;;;19.85;11.77;;;3.60;99.90;;;;;;6234270;23;20347;-83
2023/01/24 11:21:14;;;;;;;15.23;8.68;;;3.60;99.90;;;;;;6233825;23;20160;-81
2023/01/24 11:23:41;;;;;;;22.75;10.50;;;3.60;99.90;;;;;;6231811;22;20229;-81
2023/01/24 11:26:20;;;;;;;19.98;9.88;;;3.60;99.90;;;;;;6234600;23;20148;-81
2023/01/24 11:29:02;;;;;;;23.02;11.52;;;3.50;99.90;;;;;;6238860;22;20147;-81
2023/01/24 11:31:32;;;;;;;16.95;11.10;;;3.50;99.90;;;;;;6248855;23;20235;-83
2023/01/24 11:34:04;;;;;;;18.85;10.80;;;3.40;99.90;;;;;;6237297;22;20179;-80
2023/01/24 11:36:40;;;;;;;22.27;10.70;;;3.50;99.90;;;;;;6236518;23;20195;-83
2023/01/24 11:39:20;;;;;;;18.92;9.35;;;3.60;99.90;;;;;;6235282;23;20144;-82
2023/01/24 11:42:20;;;;;;;19.55;10.43;;;3.60;99.90;;;;;;6238780;22;20162;-83
2023/01/24 11:44:55;;;;;;;22.83;10.30;;;3.60;99.90;;;;;;6237164;23;20176;-81
2023/01/24 11:47:27;;;;;;;21.60;10.27;;;3.60;99.90;;;;;;6236048;23;20144;-83
2023/01/24 11:50:20;;;;;;;25.90;12.65;;;3.60;99.90;;;;;;6238746;23;20145;-82
2023/01/24 11:53:24;;;;;;;24.55;11.38;;;3.60;99.90;;;;;;6245062;22;20133;-80
2023/01/24 11:56:20;;;;;;;22.15;12.18;;;3.60;99.90;;;;;;6240137;23;20227;-84
2023/01/24 11:59:06;;;;;;;18.92;10.60;;;3.60;99.90;;;;;;6239165;22;20171;-83
2023/01/24 12:01:44;;;;;;;16.73;9.80;;;3.60;99.90;;;;;;6240230;22;20390;-84
2023/01/24 12:04:39;;;;;;;22.55;10.18;;;3.60;99.90;;;;;;6238901;23;20163;-81
2023/01/24 12:07:14;;;;;;;17.98;9.45;;;3.60;99.90;;;;;;6241437;23;20210;-85
2023/01/24 12:09:49;;;;;;;18.15;9.80;;;3.50;99.90;;;;;;6236755;23;20146;-84
2023/01/24 12:12:15;;;;;;;19.40;9.05;;;3.40;99.90;;;;;;6238678;22;20167;-82
2023/01/24 12:14:49;;;;;;;20.07;8.90;;;3.50;99.90;;;;;;6237994;23;20180;-80
2023/01/24 12:17:17;;;;;;;13.38;8.15;;;3.50;99.90;;;;;;6236119;23;20167;-82
2023/01/24 12:20:01;;;;;;;19.80;10.95;;;3.50;99.90;;;;;;6236384;23;20153;-82
2023/01/24 12:22:28;;;;;;;15.70;9.40;;;3.40;99.90;;;;;;6237566;23;20145;-81
2023/01/24 12:25:01;;;;;;;19.25;10.10;;;3.40;99.90;;;;;;6235319;23;20176;-83
2023/01/24 12:27:29;;;;;;;15.65;9.10;;;3.40;99.90;;;;;;6242858;22;20191;-84
2023/01/24 12:30:22;;;;;;;18.13;10.30;;;3.30;99.90;;;;;;6238540;22;20156;-82
2023/01/24 12:33:09;;;;;;;18.92;9.90;;;3.50;99.90;;;;;;6235883;23;20145;-83
2023/01/24 12:35:48;;;;;;;18.58;9.68;;;3.50;99.90;;;;;;6237543;22;20176;-83
2023/01/24 12:38:35;;;;;;;19.35;9.48;;;3.40;99.90;;;;;;6234674;23;20159;-85
2023/01/24 12:41:38;;;;;;;16.23;8.90;;;3.30;99.90;;;;;;6236394;23;20137;-84
2023/01/24 12:44:28;;;;;;;23.25;12.27;;;3.40;99.90;;;;;;6178596;22;20912;-82
2023/01/24 12:47:18;;;;;;;18.17;10.50;;;3.40;99.90;;;;;;6238429;22;20159;-83
2023/01/24 12:50:18;;;;;;;18.70;10.55;;;3.40;99.90;;;;;;6237700;23;20231;-81
2023/01/24 12:53:12;;;;;;;20.98;10.13;;;3.40;99.90;;;;;;6237518;23;20163;-81
2023/01/24 12:55:47;;;;;;;25.15;12.55;;;3.40;99.90;;;;;;6236510;23;20247;-80
2023/01/24 12:58:22;;;;;;;18.65;10.95;;;3.50;99.90;;;;;;6237289;23;20214;-83
2023/01/24 13:01:23;;;;;;;13.40;7.68;;;3.50;99.90;;;;;;6240302;22;20159;-86
2023/01/24 13:04:01;;;;;;;16.13;9.80;;;3.40;99.90;;;;;;6237472;23;20206;-81
2023/01/24 13:07:00;;;;;;;18.67;10.40;;;3.30;99.90;;;;;;6238055;23;20214;-81
2023/01/24 13:09:53;;;;;;;21.10;12.63;;;3.30;99.90;;;;;;6237968;23;20172;-85
2023/01/24 13:12:26;;;;;;;18.88;11.55;;;3.30;99.90;;;;;;6239709;22;20152;-82
2023/01/24 13:14:53;;;;;;;21.13;11.52;;;3.40;99.90;;;;;;6237665;23;20317;-84
2023/01/24 13:17:31;;;;;;;18.50;9.63;;;3.40;99.90;;;;;;6239624;23;20179;-85
2023/01/24 13:20:15;;;;;;;19.20;11.30;;;3.30;99.90;;;;;;6239999;22;20187;-83
2023/01/24 13:23:12;;;;;;;21.65;9.73;;;3.30;99.90;;;;;;6237342;23;20651;-83
2023/01/24 13:25:44;;;;;;;20.55;10.75;;;3.40;99.90;;;;;;6238927;23;20241;-84
2023/01/24 13:28:38;;;;;;;19.80;10.25;;;3.40;99.90;;;;;;6241429;23;20636;-81
2023/01/24 13:31:29;;;;;;;22.55;10.48;;;3.30;99.90;;;;;;6240758;23;20935;-83
2023/01/24 13:33:58;;;;;;;16.45;9.43;;;3.40;99.90;;;;;;6240524;22;20168;-83